Terminal Aerodrome Forecast
Issued by NWS Lubbock, TX

Home | Current Version | Previous Version | Text Only | Print | Product List | Glossary On
Versions: 1 2 3 4 5 6 7 8 9 10 11 12 13 14 15 16 17 18 19 20 21 22 23 24 25 26 27
000
FTUS44 KLUB 221100
TAFLBB
TAF
KLBB 221134Z 2212/2312 29013KT P6SM SCT250
     FM221500 35016KT P6SM BKN200
     FM230300 09008KT P6SM -RA BKN050 OVC120=

USA.gov is the U.S. government's official web portal to all federal, state and local government web resources and services.